Time;durP1;ratioP1;P1;durP2;ratioP2;P2;SDS_P1;SDS_P2;PMS_P1;PMS_P2;Temp;Humidity;BMP_temperature;BMP_pressure;BME280_temperature;BME280_humidity;BME280_pressure;Samples;Min_cycle;Max_cycle;Signal;HPM_P1;HPM_P2
2023/03/29 00:01:41;;;;;;;4.20;3.30;;;;;;;-0.42;70.87;95016.13;5053687;28;20215;-75
2023/03/29 00:04:12;;;;;;;4.28;3.30;;;;;;;-0.42;71.23;95016.13;5057743;28;20605;-74
2023/03/29 00:06:40;;;;;;;4.55;3.10;;;;;;;-0.47;71.28;95014.19;5061789;28;20203;-75
2023/03/29 00:09:08;;;;;;;3.70;2.70;;;;;;;-0.46;70.80;94997.19;5056576;28;20207;-74
2023/03/29 00:11:35;;;;;;;4.30;3.08;;;;;;;-0.50;70.92;95000.59;5054808;28;20215;-75
2023/03/29 00:14:02;;;;;;;6.22;3.50;;;;;;;-0.44;71.52;95012.91;5059301;28;20585;-74
2023/03/29 00:16:29;;;;;;;3.10;2.50;;;;;;;-0.44;71.60;95013.72;5061839;28;20206;-75
2023/03/29 00:18:55;;;;;;;4.13;2.85;;;;;;;-0.46;71.29;95004.38;5055179;28;20300;-75
2023/03/29 00:21:24;;;;;;;4.32;3.08;;;;;;;-0.37;70.42;95005.53;5054381;28;20203;-74
2023/03/29 00:23:51;;;;;;;5.20;3.58;;;;;;;-0.42;70.78;95005.47;5067302;28;20612;-74
2023/03/29 00:26:17;;;;;;;5.25;3.50;;;;;;;-0.51;71.21;95005.09;5064399;28;20258;-75
2023/03/29 00:28:44;;;;;;;3.15;2.58;;;;;;;-0.47;70.40;95008.06;5048607;28;20684;-74
2023/03/29 00:31:12;;;;;;;6.13;3.35;;;;;;;-0.46;70.99;95009.69;5055139;28;20548;-74
2023/03/29 00:33:41;;;;;;;7.78;3.30;;;;;;;-0.47;70.45;95019.53;5047430;28;20203;-76
2023/03/29 00:36:09;;;;;;;4.55;2.90;;;;;;;-0.46;69.64;95012.34;5052067;28;20288;-77
2023/03/29 00:38:38;;;;;;;5.82;3.40;;;;;;;-0.55;69.65;95009.34;5056028;28;20617;-73
2023/03/29 00:41:06;;;;;;;5.22;3.72;;;;;;;-0.50;69.62;95014.69;5060537;28;20241;-75
2023/03/29 00:43:51;;;;;;;5.55;3.33;;;;;;;-0.42;69.23;95000.16;5059802;28;20290;-72
2023/03/29 00:46:18;;;;;;;4.60;3.00;;;;;;;-0.46;68.99;95007.03;5056013;28;20720;-74
2023/03/29 00:48:45;;;;;;;3.53;2.92;;;;;;;-0.46;68.64;95005.16;5054364;28;20285;-74
2023/03/29 00:51:15;;;;;;;7.88;3.50;;;;;;;-0.51;69.00;95007.75;5058332;28;20559;-75
2023/03/29 00:53:48;;;;;;;5.28;3.47;;;;;;;-0.51;69.35;95012.28;5059427;28;20198;-75
2023/03/29 00:56:21;;;;;;;5.00;3.13;;;;;;;-0.53;68.68;95003.72;5057519;28;20206;-75
2023/03/29 00:58:54;;;;;;;3.72;3.10;;;;;;;-0.38;68.67;95022.53;5054048;28;20214;-76
2023/03/29 01:01:29;;;;;;;5.20;2.83;;;;;;;-0.37;68.73;95000.19;5055676;28;20211;-75
2023/03/29 01:04:01;;;;;;;6.20;3.75;;;;;;;-0.44;68.77;95012.91;5056697;28;20218;-74
2023/03/29 01:06:33;;;;;;;6.55;3.17;;;;;;;-0.52;68.97;95011.47;5047177;28;20246;-78
2023/03/29 01:09:06;;;;;;;3.65;2.90;;;;;;;-0.53;69.07;95009.84;5055536;28;20282;-75
2023/03/29 01:11:38;;;;;;;3.17;2.72;;;;;;;-0.48;68.64;95022.44;5064872;28;20286;-75
2023/03/29 01:14:06;;;;;;;5.15;3.58;;;;;;;-0.57;69.47;95023.94;5059902;28;20202;-75
2023/03/29 01:16:37;;;;;;;3.60;2.60;;;;;;;-0.50;68.76;95013.88;5054656;28;20203;-79
2023/03/29 01:19:06;;;;;;;6.47;3.28;;;;;;;-0.48;69.13;95027.75;5056788;28;20324;-74
2023/03/29 01:21:39;;;;;;;4.45;2.95;;;;;;;-0.46;68.84;95030.97;5064624;28;20210;-74
2023/03/29 01:24:32;;;;;;;4.53;2.75;;;;;;;-0.43;68.81;95031.28;5064079;28;20215;-74
2023/03/29 01:27:06;;;;;;;4.20;2.95;;;;;;;-0.46;69.38;95026.44;5059747;28;20280;-74
2023/03/29 01:29:40;;;;;;;6.47;3.38;;;;;;;-0.47;68.73;95029.34;5057588;28;20199;-75
2023/03/29 01:32:09;;;;;;;4.38;3.10;;;;;;;-0.49;68.80;95032.28;5050713;28;20265;-75
2023/03/29 01:34:42;;;;;;;4.57;3.28;;;;;;;-0.37;68.62;95032.13;5069480;28;20226;-73
2023/03/29 01:37:12;;;;;;;7.00;3.47;;;;;;;-0.41;68.30;95023.06;5057819;28;20250;-74
2023/03/29 01:39:39;;;;;;;7.15;3.60;;;;;;;-0.44;68.54;95034.19;5058241;28;20210;-74
2023/03/29 01:42:31;;;;;;;4.53;3.15;;;;;;;-0.46;68.46;95020.31;5057636;28;20233;-81
2023/03/29 01:45:07;;;;;;;3.05;2.55;;;;;;;-0.49;68.58;95018.16;5060323;28;20226;-75
2023/03/29 01:47:45;;;;;;;6.95;3.25;;;;;;;-0.44;68.35;95028.88;5064268;28;20199;-75
2023/03/29 01:50:16;;;;;;;3.72;3.17;;;;;;;-0.51;67.94;95021.06;5060230;28;20293;-74
2023/03/29 01:52:48;;;;;;;3.47;2.88;;;;;;;-0.48;68.34;95011.78;5057867;28;20199;-74
2023/03/29 01:55:19;;;;;;;2.78;2.42;;;;;;;-0.57;68.66;95007.97;5056781;28;20229;-75
2023/03/29 01:57:47;;;;;;;5.00;2.70;;;;;;;-0.52;68.37;95013.31;5062312;28;20207;-74
2023/03/29 02:00:18;;;;;;;3.78;2.88;;;;;;;-0.60;68.00;95003.94;5063953;28;20257;-74
2023/03/29 02:02:47;;;;;;;4.43;3.22;;;;;;;-0.62;68.36;95023.84;5059675;28;20199;-74
2023/03/29 02:05:16;;;;;;;3.38;2.53;;;;;;;-0.59;68.56;95018.84;5056412;28;20253;-75
2023/03/29 02:07:44;;;;;;;5.30;3.25;;;;;;;-0.54;67.88;95010.09;5060379;28;20208;-75
2023/03/29 02:10:12;;;;;;;4.45;2.88;;;;;;;-0.56;67.97;95021.03;5063738;28;20251;-75
2023/03/29 02:12:39;;;;;;;4.80;2.53;;;;;;;-0.53;68.30;95027.69;5055559;28;20268;-75
2023/03/29 02:15:12;;;;;;;6.55;3.55;;;;;;;-0.57;67.89;95034.56;5056757;28;20291;-74
2023/03/29 02:17:42;;;;;;;4.78;2.45;;;;;;;-0.61;67.21;95033.44;5058396;28;20204;-80
2023/03/29 02:20:13;;;;;;;9.55;3.30;;;;;;;-0.66;67.42;95026.19;5062900;28;20655;-74
2023/03/29 02:22:48;;;;;;;5.78;2.83;;;;;;;-0.67;67.56;95039.75;5062250;28;20209;-74
2023/03/29 02:25:16;;;;;;;5.07;3.10;;;;;;;-0.62;67.62;95037.97;5070160;28;20285;-74
2023/03/29 02:27:44;;;;;;;4.35;3.30;;;;;;;-0.61;66.71;95030.78;5068154;28;20202;-74
2023/03/29 02:30:13;;;;;;;3.05;2.20;;;;;;;-0.66;66.62;95023.53;5063029;28;20835;-78
2023/03/29 02:32:52;;;;;;;2.97;2.45;;;;;;;-0.59;66.46;95029.50;5056748;28;20207;-74
2023/03/29 02:35:25;;;;;;;3.40;2.90;;;;;;;-0.59;66.81;95042.00;5059072;28;20254;-74
2023/03/29 02:37:54;;;;;;;4.03;2.50;;;;;;;-0.58;66.86;95048.91;5050093;28;20297;-74
2023/03/29 02:40:23;;;;;;;6.63;2.42;;;;;;;-0.50;66.62;95041.28;5056727;28;20217;-75
2023/03/29 02:42:50;;;;;;;4.88;3.22;;;;;;;-0.57;66.42;95039.88;5059197;28;20204;-75
2023/03/29 02:45:18;;;;;;;4.28;3.00;;;;;;;-0.58;66.67;95054.25;5062637;28;20202;-75
2023/03/29 02:47:51;;;;;;;4.07;2.83;;;;;;;-0.57;66.90;95055.84;5049582;28;20751;-75
2023/03/29 02:50:19;;;;;;;3.40;2.72;;;;;;;-0.63;67.28;95052.31;5049006;28;20207;-74
2023/03/29 02:52:53;;;;;;;3.47;3.05;;;;;;;-0.77;67.06;95053.72;5056278;28;20199;-73
2023/03/29 02:55:23;;;;;;;4.03;3.10;;;;;;;-0.62;67.12;95058.44;5055828;28;20238;-73
2023/03/29 02:57:50;;;;;;;4.72;2.95;;;;;;;-0.55;67.41;95059.06;5069678;28;20206;-75
2023/03/29 03:00:18;;;;;;;3.50;2.45;;;;;;;-0.48;67.99;95059.69;5053352;28;20303;-74
2023/03/29 03:02:47;;;;;;;4.68;2.42;;;;;;;-0.52;67.27;95058.56;5059813;28;20199;-75
2023/03/29 03:05:14;;;;;;;4.57;3.05;;;;;;;-0.69;67.47;95081.78;5059508;28;20207;-75
2023/03/29 03:07:41;;;;;;;2.63;2.17;;;;;;;-0.70;68.33;95069.50;5061441;28;20203;-74
2023/03/29 03:10:09;;;;;;;4.40;3.03;;;;;;;-0.64;68.41;95079.97;5064243;28;20229;-73
2023/03/29 03:12:37;;;;;;;5.75;2.75;;;;;;;-0.65;69.14;95058.94;5061301;28;20285;-78
2023/03/29 03:15:05;;;;;;;4.75;2.40;;;;;;;-0.68;68.94;95064.75;5052963;28;20241;-73
2023/03/29 03:17:32;;;;;;;3.20;2.83;;;;;;;-0.70;69.01;95072.97;5049490;28;20214;-74
2023/03/29 03:20:00;;;;;;;3.78;3.10;;;;;;;-0.74;69.05;95077.97;5060321;28;20232;-74
2023/03/29 03:22:27;;;;;;;5.63;3.17;;;;;;;-0.80;69.60;95076.28;5048271;28;20290;-74
2023/03/29 03:24:54;;;;;;;3.30;2.75;;;;;;;-0.77;69.75;95082.97;5049722;28;20598;-75
2023/03/29 03:27:21;;;;;;;5.15;2.80;;;;;;;-0.74;69.17;95070.00;5061832;28;20274;-74
2023/03/29 03:30:00;;;;;;;4.40;2.92;;;;;;;-0.70;68.89;95088.13;5050793;28;20203;-74
2023/03/29 03:32:27;;;;;;;3.67;2.72;;;;;;;-0.65;68.06;95080.19;5048779;28;20203;-78
2023/03/29 03:34:54;;;;;;;4.30;2.92;;;;;;;-0.64;68.13;95087.13;5068987;28;20210;-73
2023/03/29 03:37:22;;;;;;;4.75;2.50;;;;;;;-0.67;68.22;95095.59;5053927;28;20285;-74
2023/03/29 03:39:49;;;;;;;7.63;2.97;;;;;;;-0.61;67.19;95094.63;5055056;28;20293;-74
2023/03/29 03:42:16;;;;;;;3.03;2.00;;;;;;;-0.63;66.53;95099.38;5061641;28;20831;-77
2023/03/29 03:44:43;;;;;;;3.83;2.45;;;;;;;-0.58;66.58;95094.16;5054594;28;20821;-74
2023/03/29 03:47:11;;;;;;;3.63;2.10;;;;;;;-0.66;66.45;95084.72;5054256;28;20214;-82
2023/03/29 03:49:37;;;;;;;2.78;2.22;;;;;;;-0.61;66.07;95103.41;5069026;28;20257;-75
2023/03/29 03:52:05;;;;;;;2.42;2.00;;;;;;;-0.63;65.90;95104.72;5054936;28;20195;-74
2023/03/29 03:54:33;;;;;;;1.92;1.17;;;;;;;-0.66;66.67;95100.69;5059030;28;20203;-75
2023/03/29 03:57:00;;;;;;;1.55;1.45;;;;;;;-0.70;65.54;95115.53;5061784;28;20234;-74
2023/03/29 03:59:27;;;;;;;1.10;1.00;;;;;;;-0.66;64.98;95108.66;5052204;28;20209;-80
2023/03/29 04:01:54;;;;;;;4.40;2.30;;;;;;;-0.76;65.06;95109.34;5054409;28;20254;-75
2023/03/29 04:04:22;;;;;;;3.80;2.35;;;;;;;-0.72;65.29;95115.78;5058581;28;20215;-74
2023/03/29 04:06:49;;;;;;;4.88;2.45;;;;;;;-0.74;65.40;95128.50;5059710;28;20202;-72
2023/03/29 04:09:16;;;;;;;3.20;2.38;;;;;;;-0.76;65.56;95114.66;5057764;28;20257;-74
2023/03/29 04:11:44;;;;;;;3.13;2.00;;;;;;;-0.72;65.27;95123.75;5065538;28;20580;-70
2023/03/29 04:14:11;;;;;;;2.97;2.13;;;;;;;-0.69;64.14;95119.00;5054358;28;20796;-74
2023/03/29 04:16:40;;;;;;;2.78;1.98;;;;;;;-0.63;64.43;95120.66;5057817;28;20231;-73
2023/03/29 04:19:07;;;;;;;4.50;2.60;;;;;;;-0.67;64.16;95125.66;5061830;28;20317;-75
2023/03/29 04:21:33;;;;;;;3.25;2.15;;;;;;;-0.67;64.27;95124.84;5053036;28;20625;-75
2023/03/29 04:24:00;;;;;;;2.35;0.80;;;;;;;-0.63;62.79;95126.00;5051130;28;20195;-72
2023/03/29 04:26:27;;;;;;;3.13;2.08;;;;;;;-0.50;63.01;95130.94;5053603;28;20195;-74
2023/03/29 04:28:55;;;;;;;2.95;1.95;;;;;;;-0.14;62.32;95125.03;5048677;28;20273;-74
2023/03/29 04:31:22;;;;;;;2.45;2.10;;;;;;;0.32;60.38;95128.19;5050190;28;20195;-73
2023/03/29 04:33:50;;;;;;;6.20;2.83;;;;;;;0.55;59.57;95133.22;5059246;28;20199;-75
2023/03/29 04:36:17;;;;;;;3.15;2.13;;;;;;;0.88;58.70;95128.72;5063036;28;20242;-74
2023/03/29 04:38:43;;;;;;;3.33;2.05;;;;;;;1.07;57.69;95132.59;5057242;28;20206;-74
2023/03/29 04:41:12;;;;;;;3.03;2.40;;;;;;;1.60;57.08;95128.13;5048685;28;20199;-74
2023/03/29 04:43:40;;;;;;;3.47;2.20;;;;;;;1.93;55.84;95132.28;5052397;28;20963;-75
2023/03/29 04:46:08;;;;;;;1.75;1.30;;;;;;;1.55;55.96;95118.22;5055824;28;20199;-78
2023/03/29 04:48:36;;;;;;;1.02;1.02;;;;;;;2.17;56.93;95127.31;5057630;28;20285;-74
2023/03/29 04:51:03;;;;;;;0.77;0.77;;;;;;;2.01;56.13;95129.94;5058991;28;20202;-74
2023/03/29 04:53:30;;;;;;;1.80;1.02;;;;;;;2.22;54.55;95114.75;5052221;28;20203;-75
2023/03/29 04:55:58;;;;;;;1.75;1.50;;;;;;;2.22;55.05;95125.44;5058427;28;20226;-73
2023/03/29 04:58:25;;;;;;;2.78;1.20;;;;;;;2.11;55.41;95135.31;5050735;28;20339;-73
2023/03/29 05:00:54;;;;;;;5.63;1.23;;;;;;;2.78;53.77;95138.94;5059412;28;21044;-73
2023/03/29 05:03:23;;;;;;;2.20;0.82;;;;;;;2.62;53.45;95148.00;5060878;28;20206;-75
2023/03/29 05:05:50;;;;;;;1.17;1.05;;;;;;;2.87;53.09;95149.94;5052175;28;20298;-74
2023/03/29 05:08:16;;;;;;;1.10;0.90;;;;;;;2.99;51.78;95151.28;5050661;28;20253;-72
2023/03/29 05:10:44;;;;;;;4.45;1.33;;;;;;;3.51;50.76;95148.31;5053901;28;20245;-74
2023/03/29 05:13:11;;;;;;;1.45;1.10;;;;;;;3.45;50.26;95154.72;5063272;28;20207;-76
2023/03/29 05:15:38;;;;;;;1.10;1.00;;;;;;;3.48;50.06;95159.53;5057618;28;20235;-74
2023/03/29 05:18:04;;;;;;;0.80;0.77;;;;;;;4.00;48.05;95165.59;5052857;28;20284;-75
2023/03/29 05:20:32;;;;;;;0.82;0.82;;;;;;;3.88;47.34;95157.84;5056717;28;20253;-76
2023/03/29 05:23:00;;;;;;;0.88;0.85;;;;;;;4.28;46.69;95164.97;5050819;28;20200;-75
2023/03/29 05:25:27;;;;;;;5.20;1.65;;;;;;;4.46;46.24;95169.72;5057320;28;20199;-73
2023/03/29 05:27:53;;;;;;;0.95;0.73;;;;;;;2.74;49.85;95186.81;5053540;28;20203;-74
2023/03/29 05:30:21;;;;;;;1.30;0.88;;;;;;;2.09;52.16;95190.88;5062789;28;20207;-74
2023/03/29 05:32:48;;;;;;;2.10;1.17;;;;;;;1.98;53.46;95194.56;5052928;28;20215;-74
2023/03/29 05:35:14;;;;;;;2.20;1.13;;;;;;;3.13;51.85;95186.34;5054980;28;20207;-75
2023/03/29 05:37:43;;;;;;;1.25;1.15;;;;;;;3.25;50.34;95176.16;5060511;28;20203;-74
2023/03/29 05:40:12;;;;;;;1.00;0.90;;;;;;;3.75;49.15;95180.66;5057285;28;20211;-73
2023/03/29 05:42:38;;;;;;;1.02;0.93;;;;;;;4.13;48.29;95181.91;5048909;28;20258;-73
2023/03/29 05:45:06;;;;;;;1.88;1.08;;;;;;;5.08;46.45;95176.31;5052617;28;20682;-74
2023/03/29 05:47:33;;;;;;;1.98;1.17;;;;;;;5.57;45.58;95178.91;5060210;28;20215;-78
2023/03/29 05:50:00;;;;;;;2.03;1.35;;;;;;;5.51;46.11;95177.31;5046673;28;20758;-73
2023/03/29 05:52:26;;;;;;;1.45;1.27;;;;;;;3.86;47.74;95192.16;5054464;28;20204;-74
2023/03/29 05:54:55;;;;;;;2.28;1.25;;;;;;;3.44;48.82;95189.81;5058644;28;20215;-75
2023/03/29 05:57:22;;;;;;;1.00;0.90;;;;;;;2.42;52.09;95199.56;5054558;28;20242;-73
2023/03/29 05:59:49;;;;;;;2.35;1.85;;;;;;;2.50;52.60;95207.06;5057966;28;20612;-74
2023/03/29 06:02:16;;;;;;;1.20;0.88;;;;;;;2.36;53.52;95205.94;5063597;28;20287;-75
2023/03/29 06:04:43;;;;;;;1.52;1.00;;;;;;;2.12;53.00;95198.38;5062605;28;20651;-75
2023/03/29 06:07:11;;;;;;;2.53;1.00;;;;;;;2.37;52.75;95208.38;5056502;28;20210;-74
2023/03/29 06:09:39;;;;;;;1.52;1.15;;;;;;;1.97;54.44;95208.97;5057670;28;20221;-74
2023/03/29 06:12:08;;;;;;;7.30;1.67;;;;;;;2.22;53.81;95210.16;5060656;28;20204;-73
2023/03/29 06:14:36;;;;;;;1.65;1.15;;;;;;;1.64;54.36;95215.44;5062682;28;20673;-82
2023/03/29 06:17:03;;;;;;;1.55;1.17;;;;;;;1.68;54.70;95221.91;5066304;28;20317;-73
2023/03/29 06:19:29;;;;;;;1.10;1.00;;;;;;;1.58;55.35;95215.69;5056176;28;20239;-77
2023/03/29 06:21:56;;;;;;;0.88;0.88;;;;;;;1.75;54.84;95227.03;5063661;28;20273;-74
2023/03/29 06:24:24;;;;;;;1.80;1.33;;;;;;;1.68;54.46;95215.75;5050708;28;20239;-74
2023/03/29 06:26:52;;;;;;;1.35;1.05;;;;;;;1.99;53.61;95217.53;5057725;28;20207;-74
2023/03/29 06:29:20;;;;;;;2.28;1.00;;;;;;;1.86;54.43;95223.34;5059667;28;20263;-74
2023/03/29 06:31:48;;;;;;;1.15;0.73;;;;;;;2.03;53.91;95234.69;5058264;28;20673;-74
2023/03/29 06:34:15;;;;;;;2.50;1.35;;;;;;;2.12;54.20;95232.31;5054326;28;20208;-73
2023/03/29 06:36:41;;;;;;;1.35;1.25;;;;;;;2.29;53.15;95237.47;5054927;28;20235;-76
2023/03/29 06:39:08;;;;;;;1.63;0.98;;;;;;;2.15;53.31;95242.47;5056779;28;20669;-74
2023/03/29 06:41:35;;;;;;;0.90;0.85;;;;;;;1.86;53.96;95236.69;5054615;28;20207;-75
2023/03/29 06:44:02;;;;;;;1.33;1.13;;;;;;;2.04;53.88;95246.97;5056195;28;20206;-73
2023/03/29 06:46:31;;;;;;;1.83;1.00;;;;;;;2.04;53.63;95246.97;5060198;28;20294;-74
2023/03/29 06:48:57;;;;;;;1.33;1.17;;;;;;;1.74;54.10;95252.13;5062493;28;20203;-76
2023/03/29 06:51:24;;;;;;;6.82;1.55;;;;;;;1.55;53.74;95258.91;5052508;28;20211;-75
2023/03/29 06:53:51;;;;;;;1.25;1.15;;;;;;;1.91;53.07;95254.63;5053773;28;20203;-75
2023/03/29 06:56:18;;;;;;;0.68;0.68;;;;;;;2.02;52.75;95257.13;5058653;28;20620;-75
2023/03/29 06:58:45;;;;;;;1.75;1.00;;;;;;;2.63;51.46;95245.88;5063056;28;20207;-75
2023/03/29 07:01:12;;;;;;;2.15;0.90;;;;;;;2.80;51.12;95239.25;5058476;28;20691;-74
2023/03/29 07:03:42;;;;;;;1.60;1.00;;;;;;;3.36;49.78;95234.00;5056131;28;20245;-76
2023/03/29 07:06:10;;;;;;;1.45;0.60;;;;;;;4.01;47.73;95231.53;5059369;28;20223;-74
2023/03/29 07:08:42;;;;;;;1.10;0.70;;;;;;;3.23;48.80;95237.19;5048352;28;20369;-75
2023/03/29 07:11:11;;;;;;;0.98;0.90;;;;;;;3.34;49.83;95229.97;5055674;28;20257;-74
2023/03/29 07:13:38;;;;;;;1.77;1.13;;;;;;;4.47;47.72;95238.38;5066749;28;20608;-75
2023/03/29 07:16:07;;;;;;;0.98;0.73;;;;;;;5.06;45.51;95234.84;5056244;28;20238;-74
2023/03/29 07:18:34;;;;;;;3.80;1.17;;;;;;;3.90;46.67;95242.28;5055866;28;20231;-81
2023/03/29 07:21:03;;;;;;;2.67;1.00;;;;;;;3.70;48.46;95236.13;5061289;28;20199;-76
2023/03/29 07:23:30;;;;;;;0.95;0.90;;;;;;;3.41;48.80;95235.88;5052752;28;20207;-74
2023/03/29 07:25:57;;;;;;;1.08;0.90;;;;;;;3.86;47.90;95238.53;5068407;28;20799;-73
2023/03/29 07:28:23;;;;;;;2.35;0.80;;;;;;;4.45;46.56;95237.03;5056230;28;20203;-74
2023/03/29 07:30:50;;;;;;;1.45;1.02;;;;;;;3.38;47.42;95217.66;5056364;28;20257;-81
2023/03/29 07:33:17;;;;;;;0.65;0.63;;;;;;;3.80;46.89;95230.78;5056204;28;20250;-77
2023/03/29 07:35:46;;;;;;;3.10;1.05;;;;;;;3.84;46.95;95226.47;5054833;28;20314;-75
2023/03/29 07:38:15;;;;;;;1.52;1.02;;;;;;;3.93;47.18;95233.69;5060482;28;20242;-75
2023/03/29 07:40:42;;;;;;;0.80;0.60;;;;;;;3.99;46.37;95229.13;5062203;28;20705;-74
2023/03/29 07:43:09;;;;;;;0.93;0.85;;;;;;;3.86;46.80;95229.69;5056924;28;20207;-75
2023/03/29 07:45:39;;;;;;;1.58;0.95;;;;;;;3.52;46.64;95214.19;5054906;28;20744;-75
2023/03/29 07:48:07;;;;;;;1.42;0.85;;;;;;;3.77;47.02;95220.59;5059148;28;20207;-81
2023/03/29 07:50:34;;;;;;;0.82;0.82;;;;;;;3.50;48.19;95210.97;5058494;28;20231;-76
2023/03/29 07:53:01;;;;;;;0.88;0.60;;;;;;;3.69;48.49;95213.09;5057610;28;20678;-74
2023/03/29 07:55:30;;;;;;;1.35;0.98;;;;;;;3.58;47.21;95207.75;5054922;28;20203;-77
2023/03/29 07:57:57;;;;;;;0.63;0.50;;;;;;;3.99;47.00;95214.91;5058620;28;20219;-75
2023/03/29 08:00:24;;;;;;;1.08;0.98;;;;;;;4.14;46.52;95199.59;5061404;28;20272;-77
2023/03/29 08:02:52;;;;;;;1.45;0.98;;;;;;;3.64;46.36;95199.72;5058776;28;20206;-79
2023/03/29 08:05:20;;;;;;;1.10;1.00;;;;;;;3.66;47.21;95181.50;5054737;28;20209;-74
2023/03/29 08:07:49;;;;;;;0.85;0.82;;;;;;;3.52;46.09;95192.75;5056849;28;20690;-79
2023/03/29 08:10:17;;;;;;;0.80;0.80;;;;;;;3.89;47.13;95213.06;5061048;28;20204;-72
2023/03/29 08:12:47;;;;;;;1.50;0.93;;;;;;;3.55;45.73;95207.50;5047771;28;20204;-76
2023/03/29 08:15:15;;;;;;;1.02;0.80;;;;;;;3.81;45.57;95192.19;5060243;28;20203;-76
2023/03/29 08:17:42;;;;;;;0.85;0.60;;;;;;;4.16;45.24;95181.38;5059588;28;20313;-75
2023/03/29 08:20:12;;;;;;;1.15;0.90;;;;;;;4.43;43.54;95172.13;5053329;28;20203;-78
2023/03/29 08:22:39;;;;;;;1.00;0.80;;;;;;;4.06;44.56;95176.03;5053498;28;20211;-75
2023/03/29 08:25:07;;;;;;;0.60;0.60;;;;;;;3.54;45.05;95179.91;5064221;28;20199;-79
2023/03/29 08:27:34;;;;;;;1.02;0.70;;;;;;;3.95;44.56;95174.47;5053303;28;21596;-74
2023/03/29 08:30:03;;;;;;;2.42;0.95;;;;;;;4.17;44.06;95182.97;5063106;28;20260;-75
2023/03/29 08:32:30;;;;;;;0.82;0.65;;;;;;;3.58;44.38;95186.31;5052026;28;21222;-74
2023/03/29 08:34:57;;;;;;;0.60;0.60;;;;;;;4.07;44.36;95192.94;5054312;28;20227;-74
2023/03/29 08:37:24;;;;;;;0.65;0.63;;;;;;;3.82;45.47;95185.75;5060206;28;20223;-75
2023/03/29 08:39:51;;;;;;;4.95;1.20;;;;;;;4.07;44.13;95191.06;5046545;28;20199;-83
2023/03/29 08:42:40;;;;;;;4.85;0.95;;;;;;;4.18;42.76;95184.56;5062500;28;20253;-80
2023/03/29 08:45:13;;;;;;;1.58;1.05;;;;;;;4.19;42.13;95185.38;5054958;28;20318;-74
2023/03/29 08:47:48;;;;;;;1.17;0.80;;;;;;;3.81;42.72;95186.84;5060734;28;20269;-77
2023/03/29 08:50:15;;;;;;;0.65;0.60;;;;;;;4.18;43.56;95179.22;5060160;28;20202;-75
2023/03/29 08:52:47;;;;;;;5.50;0.93;;;;;;;4.29;41.97;95175.41;5054351;28;20627;-79
2023/03/29 08:55:22;;;;;;;1.00;0.60;;;;;;;4.18;40.33;95179.22;5053363;28;20253;-76
2023/03/29 08:57:51;;;;;;;1.20;0.70;;;;;;;4.42;41.25;95183.94;5056734;28;20941;-78
2023/03/29 09:00:24;;;;;;;0.60;0.60;;;;;;;4.65;40.58;95191.34;5059149;28;20215;-85
2023/03/29 09:02:53;;;;;;;1.08;0.68;;;;;;;4.54;40.82;95182.53;5046554;28;20203;-76
2023/03/29 09:05:26;;;;;;;0.68;0.65;;;;;;;4.47;41.81;95170.53;5059497;28;20290;-75
2023/03/29 09:07:53;;;;;;;1.20;0.68;;;;;;;4.71;41.10;95187.56;5058799;28;20207;-79
2023/03/29 09:10:25;;;;;;;0.82;0.82;;;;;;;4.81;42.02;95166.03;5049724;28;20281;-77
2023/03/29 09:13:06;;;;;;;1.02;0.93;;;;;;;4.92;40.72;95172.94;5053447;28;20208;-76
2023/03/29 09:15:42;;;;;;;1.55;0.75;;;;;;;5.30;41.05;95168.66;5054858;28;20213;-74
2023/03/29 09:18:14;;;;;;;1.95;0.70;;;;;;;5.02;41.03;95161.34;5012206;28;1163742;-75
2023/03/29 09:20:51;;;;;;;1.92;0.90;;;;;;;5.32;40.13;95160.31;5055801;28;20230;-77
2023/03/29 09:23:37;;;;;;;0.80;0.65;;;;;;;5.40;39.91;95146.25;5065881;28;20210;-80
2023/03/29 09:26:12;;;;;;;1.35;0.75;;;;;;;5.04;39.14;95158.38;5065461;28;20203;-74
2023/03/29 09:28:46;;;;;;;1.08;0.70;;;;;;;4.75;40.67;95137.63;5057042;28;20213;-75
2023/03/29 09:31:20;;;;;;;0.57;0.57;;;;;;;5.20;39.65;95151.78;5054868;28;20211;-76
2023/03/29 09:33:54;;;;;;;0.82;0.70;;;;;;;5.34;39.57;95120.53;5056774;28;20206;-74
2023/03/29 09:36:24;;;;;;;1.17;0.65;;;;;;;4.97;41.16;95166.72;5057169;28;20251;-74
2023/03/29 09:38:53;;;;;;;1.50;0.90;;;;;;;5.08;41.18;95154.03;5057079;28;20278;-76
2023/03/29 09:41:25;;;;;;;0.70;0.70;;;;;;;4.96;40.31;95157.88;5063252;28;20230;-78
2023/03/29 09:43:55;;;;;;;1.25;0.68;;;;;;;5.44;39.26;95141.94;5063738;28;20264;-76
2023/03/29 09:46:29;;;;;;;1.77;0.80;;;;;;;5.69;40.37;95125.56;5059597;28;20209;-74
2023/03/29 09:48:56;;;;;;;0.98;0.80;;;;;;;6.23;40.32;95137.13;5057147;28;20207;-75
2023/03/29 09:51:26;;;;;;;2.70;0.98;;;;;;;6.04;39.45;95139.75;5070075;28;20637;-76
2023/03/29 09:53:56;;;;;;;0.85;0.60;;;;;;;5.83;38.41;95149.09;5066054;28;20665;-72
2023/03/29 09:56:23;;;;;;;3.33;1.00;;;;;;;5.83;35.69;95138.34;5061547;28;20207;-74
2023/03/29 09:58:50;;;;;;;1.23;0.82;;;;;;;5.98;35.84;95146.28;5052429;28;20240;-75
2023/03/29 10:01:17;;;;;;;1.45;0.52;;;;;;;6.15;34.63;95135.84;5057127;28;20743;-76
2023/03/29 10:03:51;;;;;;;0.60;0.57;;;;;;;6.19;34.44;95142.25;5060400;28;20204;-72
2023/03/29 10:06:20;;;;;;;0.80;0.80;;;;;;;6.06;33.79;95151.00;5063002;28;20213;-75
2023/03/29 10:08:49;;;;;;;2.35;0.90;;;;;;;6.03;34.03;95138.13;5057089;28;20280;-76
2023/03/29 10:11:22;;;;;;;1.95;1.15;;;;;;;5.85;34.98;95128.91;5069606;28;20370;-81
2023/03/29 10:13:53;;;;;;;0.60;0.57;;;;;;;6.09;35.10;95126.25;5058352;28;20282;-75
2023/03/29 10:16:22;;;;;;;0.85;0.40;;;;;;;5.85;32.76;95103.91;5056629;28;20211;-78
2023/03/29 10:18:53;;;;;;;0.60;0.60;;;;;;;5.57;34.43;95140.47;5060947;28;20243;-74
2023/03/29 10:21:22;;;;;;;1.40;0.80;;;;;;;5.55;34.58;95130.00;5063360;28;20303;-77
2023/03/29 10:23:56;;;;;;;0.60;0.60;;;;;;;6.00;33.71;95133.34;5046465;28;20204;-78
2023/03/29 10:26:28;;;;;;;0.70;0.50;;;;;;;6.05;33.63;95130.59;5054049;28;20248;-77
2023/03/29 10:28:59;;;;;;;0.52;0.52;;;;;;;6.22;34.94;95122.06;5058689;28;20207;-74
2023/03/29 10:31:28;;;;;;;1.60;0.70;;;;;;;5.87;32.79;95128.63;5056445;28;20294;-80
2023/03/29 10:33:58;;;;;;;0.68;0.68;;;;;;;6.19;33.95;95114.56;5056928;28;20291;-73
2023/03/29 10:36:27;;;;;;;1.05;0.70;;;;;;;6.44;33.54;95116.94;5055851;28;20647;-75
2023/03/29 10:38:58;;;;;;;0.47;0.47;;;;;;;6.69;33.38;95110.41;5069088;28;20300;-81
2023/03/29 10:41:26;;;;;;;2.42;0.70;;;;;;;6.57;33.09;95086.59;5057106;28;20757;-75
2023/03/29 10:43:54;;;;;;;0.88;0.73;;;;;;;6.00;33.60;95101.88;5056309;28;20685;-77
2023/03/29 10:46:23;;;;;;;4.22;0.88;;;;;;;6.47;33.07;95118.25;5061065;28;20269;-75
2023/03/29 10:48:51;;;;;;;0.50;0.40;;;;;;;6.29;33.54;95109.03;5065245;28;20207;-80
2023/03/29 10:51:20;;;;;;;0.65;0.52;;;;;;;6.71;32.68;95117.09;5060101;28;20204;-79
2023/03/29 10:53:47;;;;;;;0.80;0.57;;;;;;;6.18;30.29;95096.81;5062954;28;20221;-77
2023/03/29 10:56:38;;;;;;;1.13;0.63;;;;;;;6.22;33.62;95093.28;5044156;28;20194;-77
2023/03/29 10:59:22;;;;;;;0.77;0.50;;;;;;;6.25;33.09;95087.31;5048086;28;20238;-83
2023/03/29 11:02:20;;;;;;;0.57;0.57;;;;;;;6.21;34.46;95083.59;5056013;28;20319;-75
2023/03/29 11:04:51;;;;;;;0.70;0.70;;;;;;;6.63;32.58;95114.25;5059504;28;20283;-75
2023/03/29 11:07:30;;;;;;;1.83;0.98;;;;;;;6.62;30.67;95091.94;5058418;28;20257;-83
2023/03/29 11:10:06;;;;;;;0.50;0.50;;;;;;;6.98;31.25;95067.94;5054147;28;20199;-75
2023/03/29 11:12:41;;;;;;;1.35;0.60;;;;;;;6.68;32.46;95081.91;5059284;28;20252;-78
2023/03/29 11:15:20;;;;;;;1.38;1.08;;;;;;;6.59;32.56;95086.31;5053333;28;21035;-77
2023/03/29 11:18:01;;;;;;;2.42;0.80;;;;;;;7.00;32.40;95071.16;5054002;28;20768;-84
2023/03/29 11:20:36;;;;;;;1.52;0.80;;;;;;;6.81;32.42;95083.06;5056877;28;20578;-73
2023/03/29 11:23:21;;;;;;;1.15;0.77;;;;;;;6.99;33.52;95058.78;5064670;28;20206;-73
2023/03/29 11:26:00;;;;;;;1.10;1.00;;;;;;;7.00;31.27;95068.47;5057996;28;20200;-74
2023/03/29 11:28:35;;;;;;;0.57;0.40;;;;;;;7.12;31.93;95068.78;5058805;28;20202;-78
2023/03/29 11:31:10;;;;;;;1.38;0.73;;;;;;;7.20;33.03;95078.13;5058813;28;20203;-75
2023/03/29 11:33:47;;;;;;;1.58;0.95;;;;;;;7.10;32.33;95080.97;5058247;28;20764;-75
2023/03/29 11:36:20;;;;;;;1.10;0.88;;;;;;;6.99;31.96;95066.84;5052289;28;20596;-74
2023/03/29 11:38:57;;;;;;;0.50;0.50;;;;;;;7.08;32.08;95062.41;5052789;28;20222;-75
2023/03/29 11:41:27;;;;;;;2.17;0.73;;;;;;;7.23;32.16;95074.03;5055041;28;20199;-75
2023/03/29 11:44:00;;;;;;;2.13;0.88;;;;;;;7.13;32.07;95069.59;5056161;28;20187;-75
2023/03/29 11:46:32;;;;;;;2.55;0.98;;;;;;;7.42;32.50;95088.25;5052563;28;20199;-77
2023/03/29 11:49:05;;;;;;;0.57;0.50;;;;;;;7.15;32.66;95075.50;5061409;28;20609;-74
2023/03/29 11:51:36;;;;;;;0.77;0.77;;;;;;;7.12;32.05;95068.00;5056885;28;20246;-74